Time;durP1;ratioP1;P1;durP2;ratioP2;P2;SDS_P1;SDS_P2;PMS_P1;PMS_P2;Temp;Humidity;BMP_temperature;BMP_pressure;BME280_temperature;BME280_humidity;BME280_pressure;Samples;Min_cycle;Max_cycle;Signal;HPM_P1;HPM_P2
2023/11/03 00:01:46;;;;;;;4.03;1.67;;;9.80;99.90;;;;;;4106593;28;20299;-77
2023/11/03 00:03:48;;;;;;;3.60;1.60;;;9.90;99.90;;;;;;4107087;28;20229;-77
2023/11/03 00:05:49;;;;;;;2.63;1.70;;;9.90;99.90;;;;;;4104223;28;20213;-77
2023/11/03 00:07:51;;;;;;;3.40;1.70;;;9.80;99.90;;;;;;4111889;28;20280;-77
2023/11/03 00:09:53;;;;;;;3.37;1.60;;;9.90;99.90;;;;;;4115533;28;20232;-77
2023/11/03 00:11:55;;;;;;;1.80;1.23;;;9.90;99.90;;;;;;4105235;28;20209;-77
2023/11/03 00:13:59;;;;;;;3.53;1.70;;;9.80;99.90;;;;;;4106352;28;20240;-77
2023/11/03 00:16:02;;;;;;;2.27;1.43;;;9.90;99.90;;;;;;4105646;28;20212;-77
2023/11/03 00:18:05;;;;;;;2.17;1.40;;;9.90;99.90;;;;;;4114480;28;20212;-77
2023/11/03 00:20:07;;;;;;;2.40;1.50;;;9.80;99.90;;;;;;4116268;28;20282;-77
2023/11/03 00:22:10;;;;;;;5.30;1.60;;;9.90;99.90;;;;;;4115211;28;20295;-77
2023/11/03 00:24:11;;;;;;;3.20;1.30;;;9.80;99.90;;;;;;4108895;28;20235;-77
2023/11/03 00:26:13;;;;;;;2.53;1.57;;;9.80;99.90;;;;;;4108301;28;20205;-77
2023/11/03 00:28:18;;;;;;;2.43;1.60;;;9.80;99.90;;;;;;4111180;28;20215;-77
2023/11/03 00:30:21;;;;;;;2.77;1.60;;;9.80;99.90;;;;;;4121921;28;20235;-77
2023/11/03 00:32:22;;;;;;;3.27;1.40;;;9.80;99.90;;;;;;4106035;28;20207;-77
2023/11/03 00:34:24;;;;;;;5.10;1.80;;;9.80;99.90;;;;;;4105713;28;20605;-77
2023/11/03 00:36:29;;;;;;;2.10;1.60;;;9.80;99.90;;;;;;4111192;28;20217;-77
2023/11/03 00:38:32;;;;;;;2.20;1.50;;;9.80;99.90;;;;;;4113918;28;20218;-77
2023/11/03 00:40:33;;;;;;;3.43;1.53;;;9.80;99.90;;;;;;4110706;28;20215;-77
2023/11/03 00:42:36;;;;;;;1.90;1.40;;;9.70;99.90;;;;;;4115119;28;20290;-77
2023/11/03 00:44:39;;;;;;;3.37;1.43;;;9.80;99.90;;;;;;4107763;28;20237;-77
2023/11/03 00:46:42;;;;;;;4.07;1.60;;;9.70;99.90;;;;;;4109052;28;20217;-77
2023/11/03 00:48:47;;;;;;;4.50;1.60;;;9.70;99.90;;;;;;4109672;28;20222;-77
2023/11/03 00:50:49;;;;;;;3.30;1.83;;;9.80;99.90;;;;;;4110552;28;20236;-77
2023/11/03 00:52:51;;;;;;;2.63;1.57;;;9.70;99.90;;;;;;4107678;28;20216;-77
2023/11/03 00:54:53;;;;;;;1.60;1.50;;;9.70;99.90;;;;;;4103346;28;20889;-77
2023/11/03 00:56:55;;;;;;;1.70;1.37;;;9.70;99.90;;;;;;4106765;28;20223;-77
2023/11/03 00:59:00;;;;;;;3.20;1.50;;;9.70;99.90;;;;;;4102283;28;20212;-77
2023/11/03 01:01:03;;;;;;;2.70;1.37;;;9.70;99.90;;;;;;4113062;28;20212;-78
2023/11/03 01:03:37;;;;;;;3.00;1.27;;;9.70;99.90;;;;;;4118041;28;20221;-80
2023/11/03 01:05:59;;;;;;;1.80;1.30;;;9.60;99.90;;;;;;4111846;28;20267;-78
2023/11/03 01:08:22;;;;;;;2.40;1.70;;;9.60;99.90;;;;;;4114954;28;20211;-79
2023/11/03 01:16:32;;;;;;;;;;;;;;;;;;;;;
2023/11/03 01:19:13;;;;;;;4.93;2.00;;;9.70;99.90;;;;;;4037084;29;20229;-80
2023/11/03 01:21:48;;;;;;;3.70;1.73;;;9.70;99.90;;;;;;4001522;29;20837;-79
2023/11/03 01:33:48;;;;;;;3.23;1.50;;;9.70;99.90;;;;;;4057014;29;20843;-79
2023/11/03 01:43:10;;;;;;;3.13;1.73;;;9.60;99.90;;;;;;4106773;28;20284;-79
2023/11/03 01:45:59;;;;;;;1.80;1.37;;;9.70;99.90;;;;;;4118909;28;20247;-79
2023/11/03 01:48:01;;;;;;;2.03;1.53;;;9.70;99.90;;;;;;4107270;28;20269;-78
2023/11/03 01:50:04;;;;;;;2.77;1.50;;;9.70;99.90;;;;;;4112342;28;20624;-78
2023/11/03 01:52:15;;;;;;;4.73;1.60;;;9.70;99.90;;;;;;4117593;28;20220;-78
2023/11/03 01:54:17;;;;;;;2.90;1.60;;;9.60;99.90;;;;;;4119742;28;20271;-77
2023/11/03 01:56:18;;;;;;;3.60;1.60;;;9.60;99.90;;;;;;4116603;28;20221;-78
2023/11/03 01:58:21;;;;;;;4.50;1.50;;;9.70;99.90;;;;;;4108434;28;20229;-78
2023/11/03 02:00:23;;;;;;;2.03;1.50;;;9.70;99.90;;;;;;4107888;28;20307;-78
2023/11/03 02:02:26;;;;;;;2.20;1.40;;;9.70;99.90;;;;;;4106932;28;20209;-78
2023/11/03 02:04:28;;;;;;;2.47;1.70;;;9.70;99.90;;;;;;4119616;28;20234;-78
2023/11/03 02:06:30;;;;;;;2.10;1.40;;;9.70;99.90;;;;;;4104171;28;20209;-78
2023/11/03 02:08:34;;;;;;;3.20;1.60;;;9.70;99.90;;;;;;4121932;28;20226;-78
2023/11/03 02:10:42;;;;;;;2.73;2.17;;;9.70;99.90;;;;;;4110553;28;20315;-78
2023/11/03 02:12:43;;;;;;;4.77;1.57;;;9.70;99.90;;;;;;4114185;28;20672;-78
2023/11/03 02:14:49;;;;;;;2.57;1.60;;;9.70;99.90;;;;;;4111856;28;20291;-78
2023/11/03 02:16:51;;;;;;;3.20;1.53;;;9.70;99.90;;;;;;4110448;28;20273;-78
2023/11/03 02:18:52;;;;;;;4.87;1.63;;;9.70;99.90;;;;;;4115992;28;20274;-78
2023/11/03 02:20:54;;;;;;;6.30;1.83;;;9.70;99.90;;;;;;4112697;28;20231;-79
2023/11/03 02:22:58;;;;;;;4.47;1.57;;;9.70;99.90;;;;;;4111251;28;20724;-78
2023/11/03 02:25:01;;;;;;;1.50;1.40;;;9.70;99.90;;;;;;4120556;28;20233;-78
2023/11/03 02:27:02;;;;;;;2.30;1.53;;;9.70;99.90;;;;;;4117000;28;20224;-78
2023/11/03 02:29:05;;;;;;;4.47;2.07;;;9.70;99.90;;;;;;4116510;28;20262;-78
2023/11/03 02:31:07;;;;;;;2.10;1.43;;;9.70;99.90;;;;;;4107939;28;20596;-78
2023/11/03 02:33:09;;;;;;;2.20;1.40;;;9.60;99.90;;;;;;4114678;28;20259;-78
2023/11/03 02:35:11;;;;;;;3.73;1.47;;;9.60;99.90;;;;;;4114590;28;20262;-78
2023/11/03 02:37:13;;;;;;;2.07;1.40;;;9.60;99.90;;;;;;4112752;28;20676;-78
2023/11/03 02:39:16;;;;;;;2.30;1.20;;;9.60;99.90;;;;;;4110292;28;20222;-78
2023/11/03 02:41:18;;;;;;;4.23;1.53;;;9.60;99.90;;;;;;4114863;28;20205;-78
2023/11/03 02:43:21;;;;;;;1.90;1.43;;;9.50;99.90;;;;;;4112769;28;20207;-79
2023/11/03 02:45:22;;;;;;;5.20;1.40;;;9.50;99.90;;;;;;4106918;28;20216;-78
2023/11/03 02:47:24;;;;;;;3.30;1.40;;;9.50;99.90;;;;;;4122513;28;20214;-78
2023/11/03 02:49:25;;;;;;;3.50;1.40;;;9.50;99.90;;;;;;4112995;28;20212;-78
2023/11/03 02:51:27;;;;;;;2.33;1.37;;;9.50;99.90;;;;;;4120895;28;20242;-78
2023/11/03 02:53:29;;;;;;;1.70;1.00;;;9.50;99.90;;;;;;4104910;28;20311;-79
2023/11/03 02:55:32;;;;;;;2.17;1.30;;;9.50;99.90;;;;;;4106063;28;20218;-79
2023/11/03 02:57:34;;;;;;;2.30;1.40;;;9.50;99.90;;;;;;4110066;28;20284;-78
2023/11/03 02:59:36;;;;;;;4.80;1.10;;;9.50;99.90;;;;;;4123026;28;20278;-78
2023/11/03 03:01:40;;;;;;;2.73;1.20;;;9.50;99.90;;;;;;4111091;28;20256;-78
2023/11/03 03:03:42;;;;;;;2.67;1.30;;;9.50;99.90;;;;;;4110639;28;20227;-78
2023/11/03 03:05:44;;;;;;;4.10;1.20;;;9.50;99.90;;;;;;4108306;28;20220;-79
2023/11/03 03:07:46;;;;;;;5.30;1.27;;;9.40;99.90;;;;;;4111833;28;20214;-79
2023/11/03 03:09:48;;;;;;;2.60;1.10;;;9.40;99.90;;;;;;4119587;28;20203;-78
2023/11/03 03:11:51;;;;;;;9.10;1.30;;;9.40;99.90;;;;;;4101343;28;20226;-78
2023/11/03 03:13:53;;;;;;;6.97;1.10;;;9.40;99.90;;;;;;4101398;28;20239;-78
2023/11/03 03:15:55;;;;;;;2.63;1.00;;;9.40;99.90;;;;;;4124074;28;20215;-78
2023/11/03 03:17:58;;;;;;;4.93;1.10;;;9.40;99.90;;;;;;4111722;28;20203;-78
2023/11/03 03:19:59;;;;;;;5.13;1.13;;;9.40;99.90;;;;;;4111304;28;20699;-78
2023/11/03 03:22:02;;;;;;;4.93;1.30;;;9.40;99.90;;;;;;4107549;28;20744;-79
2023/11/03 03:24:05;;;;;;;3.77;0.90;;;9.40;99.90;;;;;;4114803;28;20235;-78
2023/11/03 03:26:07;;;;;;;2.93;1.30;;;9.40;99.90;;;;;;4114569;28;20671;-78
2023/11/03 03:28:12;;;;;;;2.73;1.00;;;9.40;99.90;;;;;;4121569;28;20619;-78
2023/11/03 03:30:13;;;;;;;5.97;1.07;;;9.40;99.90;;;;;;4112719;28;20692;-78
2023/11/03 03:32:15;;;;;;;2.93;1.17;;;9.40;99.90;;;;;;4108927;28;20220;-78
2023/11/03 03:34:18;;;;;;;4.57;1.40;;;9.40;99.90;;;;;;4121919;28;20298;-78
2023/11/03 03:36:20;;;;;;;2.80;1.30;;;9.40;99.90;;;;;;4112895;28;20278;-79
2023/11/03 03:38:22;;;;;;;2.83;1.20;;;9.30;99.90;;;;;;4106057;28;20219;-79
2023/11/03 03:40:24;;;;;;;6.30;1.53;;;9.30;99.90;;;;;;4119671;28;20757;-78
2023/11/03 03:42:27;;;;;;;3.27;1.80;;;9.30;99.90;;;;;;4116654;28;20214;-78
2023/11/03 03:44:30;;;;;;;5.33;1.20;;;9.20;99.90;;;;;;4108813;28;20231;-78
2023/11/03 03:46:37;;;;;;;6.67;1.40;;;9.20;99.90;;;;;;4113715;28;20210;-78
2023/11/03 03:48:42;;;;;;;2.17;1.07;;;9.20;99.90;;;;;;4105352;28;20218;-78
2023/11/03 03:50:43;;;;;;;5.20;1.40;;;9.20;99.90;;;;;;4107980;28;20338;-78
2023/11/03 03:52:45;;;;;;;3.30;1.30;;;9.20;99.90;;;;;;4114408;28;20193;-78
2023/11/03 03:54:47;;;;;;;5.90;1.30;;;9.10;99.90;;;;;;4112555;28;20281;-78
2023/11/03 03:56:49;;;;;;;3.93;1.37;;;9.20;99.90;;;;;;4111048;28;20311;-77
2023/11/03 03:58:50;;;;;;;3.43;1.17;;;9.20;99.90;;;;;;4102838;28;20290;-78
2023/11/03 04:00:53;;;;;;;3.83;1.20;;;9.10;99.90;;;;;;4105636;28;20211;-78
2023/11/03 04:02:55;;;;;;;3.43;1.20;;;9.00;99.90;;;;;;4106805;28;20209;-78
2023/11/03 04:04:58;;;;;;;3.40;1.20;;;9.00;99.90;;;;;;4106772;28;20716;-78
2023/11/03 04:07:00;;;;;;;7.27;1.43;;;9.00;99.90;;;;;;4110264;28;20228;-78
2023/11/03 04:09:02;;;;;;;2.50;1.10;;;9.00;99.90;;;;;;4109734;28;20216;-78
2023/11/03 04:11:04;;;;;;;7.03;1.33;;;9.00;99.90;;;;;;4108565;28;20707;-78
2023/11/03 04:13:06;;;;;;;6.73;1.20;;;9.00;99.90;;;;;;4111145;28;20558;-77
2023/11/03 04:15:08;;;;;;;4.00;1.17;;;9.00;99.90;;;;;;4111758;28;20219;-78
2023/11/03 04:17:12;;;;;;;2.37;0.90;;;9.00;99.90;;;;;;4115043;28;20267;-78
2023/11/03 04:19:14;;;;;;;6.23;1.20;;;8.90;99.90;;;;;;4108627;28;20671;-77
2023/11/03 04:21:15;;;;;;;3.77;1.17;;;8.90;99.90;;;;;;4112735;28;20207;-78
2023/11/03 04:23:17;;;;;;;4.77;1.27;;;8.90;99.90;;;;;;4109372;28;20223;-77
2023/11/03 04:25:19;;;;;;;7.27;1.37;;;8.90;99.90;;;;;;4105154;28;20232;-78
2023/11/03 04:27:21;;;;;;;2.67;1.07;;;8.90;99.90;;;;;;4104683;28;20235;-77
2023/11/03 04:29:23;;;;;;;5.23;1.30;;;8.80;99.90;;;;;;4108570;28;20235;-76
2023/11/03 04:31:28;;;;;;;2.73;1.10;;;8.80;99.90;;;;;;4108366;28;20298;-77
2023/11/03 04:33:31;;;;;;;2.37;1.17;;;8.80;99.90;;;;;;4114303;28;20238;-76
2023/11/03 04:35:33;;;;;;;2.33;1.00;;;8.80;99.90;;;;;;4109048;28;20206;-76
2023/11/03 04:37:35;;;;;;;3.80;0.93;;;8.80;99.90;;;;;;4112907;28;20209;-76
2023/11/03 04:39:40;;;;;;;2.27;0.97;;;8.80;99.90;;;;;;4112847;28;20553;-76
2023/11/03 04:41:42;;;;;;;5.50;0.97;;;8.80;99.90;;;;;;4119341;28;20559;-76
2023/11/03 04:43:45;;;;;;;3.43;1.20;;;8.80;99.90;;;;;;4117794;28;20261;-77
2023/11/03 04:45:47;;;;;;;4.70;1.00;;;8.80;99.90;;;;;;4111171;28;20247;-76
2023/11/03 04:47:49;;;;;;;2.90;1.20;;;8.70;99.90;;;;;;4116040;28;20207;-76
2023/11/03 04:49:53;;;;;;;1.73;0.90;;;8.80;99.90;;;;;;4108675;28;20878;-76
2023/11/03 04:51:55;;;;;;;5.20;1.37;;;8.70;99.90;;;;;;4105345;28;20709;-76
2023/11/03 04:53:57;;;;;;;4.23;1.30;;;8.70;99.90;;;;;;4110237;28;20231;-76
2023/11/03 04:55:59;;;;;;;3.23;1.00;;;8.70;99.90;;;;;;4111728;28;20211;-76
2023/11/03 04:58:01;;;;;;;3.43;1.20;;;8.60;99.90;;;;;;4106959;28;20577;-77
2023/11/03 05:00:03;;;;;;;2.67;1.03;;;8.60;99.90;;;;;;4109612;28;20224;-77
2023/11/03 05:02:10;;;;;;;7.43;1.27;;;8.60;99.90;;;;;;4107104;28;20253;-78
2023/11/03 05:04:14;;;;;;;5.43;1.20;;;8.60;99.90;;;;;;4114563;28;20234;-78
2023/11/03 05:06:20;;;;;;;2.13;1.20;;;8.50;99.90;;;;;;4116833;28;20208;-78
2023/11/03 05:08:21;;;;;;;3.33;1.13;;;8.50;99.90;;;;;;4112120;28;20207;-78
2023/11/03 05:10:23;;;;;;;3.83;1.13;;;8.50;99.90;;;;;;4111477;28;20199;-78
2023/11/03 05:12:25;;;;;;;6.77;1.40;;;8.40;99.90;;;;;;4111210;28;20230;-78
2023/11/03 05:14:27;;;;;;;5.27;1.40;;;8.40;99.90;;;;;;4107684;28;20235;-78
2023/11/03 05:16:29;;;;;;;5.23;1.40;;;8.40;99.90;;;;;;4113435;28;20295;-78
2023/11/03 05:18:32;;;;;;;3.37;1.23;;;8.40;99.90;;;;;;4110058;28;20210;-78
2023/11/03 05:20:35;;;;;;;5.10;1.20;;;8.40;99.90;;;;;;4106811;28;20215;-79
2023/11/03 05:22:38;;;;;;;3.60;1.00;;;8.40;99.90;;;;;;4112037;28;20558;-78
2023/11/03 05:24:40;;;;;;;4.73;1.20;;;8.40;99.90;;;;;;4112171;28;20242;-77
2023/11/03 05:26:42;;;;;;;3.73;1.10;;;8.40;99.90;;;;;;4107575;28;20225;-78
2023/11/03 05:28:44;;;;;;;6.73;1.30;;;8.30;99.90;;;;;;4108661;28;20204;-77
2023/11/03 05:30:45;;;;;;;4.53;1.30;;;8.30;99.90;;;;;;4114565;28;20290;-77
2023/11/03 05:32:47;;;;;;;4.67;1.50;;;8.30;99.90;;;;;;4105382;28;20255;-77
2023/11/03 05:34:49;;;;;;;5.47;1.20;;;8.20;99.90;;;;;;4113290;28;20231;-77
2023/11/03 05:36:52;;;;;;;5.30;1.37;;;8.20;99.90;;;;;;4116331;28;20258;-77
2023/11/03 05:38:54;;;;;;;7.10;1.83;;;8.20;99.90;;;;;;4108008;28;20209;-77
2023/11/03 05:40:56;;;;;;;5.87;1.10;;;8.10;99.90;;;;;;4106729;28;20775;-77
2023/11/03 05:42:58;;;;;;;6.63;1.30;;;8.20;99.90;;;;;;4114380;28;20213;-77
2023/11/03 05:45:00;;;;;;;4.43;1.27;;;8.10;99.90;;;;;;4106505;28;20229;-77
2023/11/03 05:47:02;;;;;;;7.40;1.40;;;8.10;99.90;;;;;;4113530;28;20219;-76
2023/11/03 05:49:05;;;;;;;5.47;1.50;;;8.10;99.90;;;;;;4104370;28;20202;-77
2023/11/03 05:51:06;;;;;;;5.93;0.97;;;8.10;99.90;;;;;;4106792;28;20215;-77
2023/11/03 05:53:08;;;;;;;5.67;1.27;;;8.00;99.90;;;;;;4115128;28;20774;-77
2023/11/03 05:55:11;;;;;;;4.10;1.47;;;8.00;99.90;;;;;;4119389;28;20267;-76
2023/11/03 05:57:13;;;;;;;5.77;1.10;;;8.00;99.90;;;;;;4115875;28;20252;-76
2023/11/03 05:59:15;;;;;;;3.63;1.27;;;8.00;99.90;;;;;;4119889;28;20640;-76
2023/11/03 06:01:18;;;;;;;4.80;1.13;;;7.90;99.90;;;;;;4113679;28;20259;-77
2023/11/03 06:03:20;;;;;;;4.67;1.30;;;7.90;99.90;;;;;;4109546;28;20210;-77
2023/11/03 06:05:21;;;;;;;4.57;1.30;;;7.90;99.90;;;;;;4113656;28;20216;-77
2023/11/03 06:07:23;;;;;;;5.27;1.80;;;7.90;99.90;;;;;;4118106;28;20209;-77
2023/11/03 06:09:29;;;;;;;4.33;1.40;;;7.90;99.90;;;;;;4119833;28;20218;-76
2023/11/03 06:11:32;;;;;;;6.30;1.40;;;7.80;99.90;;;;;;4120041;28;20276;-77
2023/11/03 06:13:37;;;;;;;6.00;1.40;;;7.80;99.90;;;;;;4111414;28;20232;-76
2023/11/03 06:15:39;;;;;;;3.20;1.07;;;7.80;99.90;;;;;;4108824;28;20206;-77
2023/11/03 06:17:41;;;;;;;3.60;1.60;;;7.80;99.90;;;;;;4110187;28;20209;-77
2023/11/03 06:19:42;;;;;;;6.70;1.43;;;7.80;99.90;;;;;;4107867;28;20214;-78
2023/11/03 06:21:44;;;;;;;4.00;1.20;;;7.80;99.90;;;;;;4112493;28;20200;-79
2023/11/03 06:23:46;;;;;;;3.87;1.60;;;7.70;99.90;;;;;;4107059;28;20258;-77
2023/11/03 06:25:48;;;;;;;3.40;1.30;;;7.70;99.90;;;;;;4107189;28;20741;-78
2023/11/03 06:27:51;;;;;;;3.47;1.67;;;7.70;99.90;;;;;;4111343;28;20260;-78
2023/11/03 06:29:53;;;;;;;4.43;1.47;;;7.70;99.90;;;;;;4109910;28;20225;-78
2023/11/03 06:31:55;;;;;;;6.97;1.70;;;7.70;99.90;;;;;;4106304;28;20277;-79
2023/11/03 06:33:57;;;;;;;5.60;1.40;;;7.70;99.90;;;;;;4114363;28;20259;-77
2023/11/03 06:35:59;;;;;;;8.23;1.30;;;7.70;99.90;;;;;;4109187;28;20216;-78
2023/11/03 06:38:01;;;;;;;5.37;1.20;;;7.60;99.90;;;;;;4112955;28;20366;-77
2023/11/03 06:40:03;;;;;;;4.53;1.40;;;7.60;99.90;;;;;;4106748;28;20214;-79
2023/11/03 06:42:07;;;;;;;9.23;1.30;;;7.60;99.90;;;;;;4106257;28;20298;-78
2023/11/03 06:44:11;;;;;;;6.27;1.60;;;7.60;99.90;;;;;;4113342;28;20277;-78
2023/11/03 06:46:14;;;;;;;2.50;1.20;;;7.60;99.90;;;;;;4104302;28;20291;-77
2023/11/03 06:48:16;;;;;;;3.80;1.20;;;7.70;99.90;;;;;;4112672;28;20214;-77
2023/11/03 06:50:18;;;;;;;4.63;1.23;;;7.50;99.90;;;;;;4109850;28;20217;-79
2023/11/03 06:52:23;;;;;;;7.37;1.60;;;7.50;99.90;;;;;;4108862;28;20748;-78
2023/11/03 06:54:25;;;;;;;6.43;1.93;;;7.50;99.90;;;;;;4108435;28;20233;-78
2023/11/03 06:56:27;;;;;;;6.13;1.90;;;7.40;99.90;;;;;;4112982;28;20216;-78
2023/11/03 06:58:29;;;;;;;3.90;1.67;;;7.40;99.90;;;;;;4107152;28;20256;-78
2023/11/03 07:00:33;;;;;;;7.93;1.50;;;7.40;99.90;;;;;;4110800;28;20222;-78
2023/11/03 07:02:34;;;;;;;9.43;1.70;;;7.40;99.90;;;;;;4107382;28;20864;-78
2023/11/03 07:04:36;;;;;;;5.97;1.30;;;7.40;99.90;;;;;;4112754;28;20295;-78
2023/11/03 07:06:37;;;;;;;5.70;1.50;;;7.40;99.90;;;;;;4115828;28;20215;-78
2023/11/03 07:08:39;;;;;;;7.13;1.57;;;7.40;99.90;;;;;;4114470;28;20285;-78
2023/11/03 07:10:41;;;;;;;3.27;1.20;;;7.40;99.90;;;;;;4106752;28;20210;-78
2023/11/03 07:12:44;;;;;;;5.53;1.20;;;7.40;99.90;;;;;;4115690;28;20233;-77
2023/11/03 07:14:46;;;;;;;5.13;1.20;;;7.30;99.90;;;;;;4112108;28;20326;-78
2023/11/03 07:16:50;;;;;;;6.20;1.30;;;7.30;99.90;;;;;;4117257;28;20214;-77
2023/11/03 07:18:52;;;;;;;4.10;1.50;;;7.30;99.90;;;;;;4107701;28;20446;-78
2023/11/03 07:20:54;;;;;;;3.93;1.63;;;7.30;99.90;;;;;;4109980;28;20215;-74
2023/11/03 07:22:56;;;;;;;10.63;1.53;;;7.30;99.90;;;;;;4107283;28;20690;-81
2023/11/03 07:24:58;;;;;;;10.53;1.73;;;7.30;99.90;;;;;;4105506;28;20224;-75
2023/11/03 07:27:00;;;;;;;9.10;1.50;;;7.30;99.90;;;;;;4108674;28;20216;-78
2023/11/03 07:29:02;;;;;;;7.63;1.60;;;7.30;99.90;;;;;;4103733;28;20213;-78
2023/11/03 07:31:10;;;;;;;3.53;1.33;;;7.30;99.90;;;;;;4110367;28;20942;-78
2023/11/03 07:33:14;;;;;;;7.70;1.33;;;7.30;99.90;;;;;;4116729;28;20217;-78
2023/11/03 07:35:15;;;;;;;3.27;1.30;;;7.30;99.90;;;;;;4114688;28;20253;-78
2023/11/03 07:37:17;;;;;;;7.17;1.50;;;7.40;99.90;;;;;;4105297;28;20615;-78
2023/11/03 07:39:22;;;;;;;4.87;1.50;;;7.40;99.90;;;;;;4104599;28;20216;-78
2023/11/03 07:41:24;;;;;;;3.07;1.30;;;7.40;99.90;;;;;;4110180;28;20225;-78
2023/11/03 07:43:26;;;;;;;10.87;1.60;;;7.50;99.90;;;;;;4111402;28;20753;-78
2023/11/03 07:45:28;;;;;;;6.23;1.13;;;7.50;99.90;;;;;;4104364;28;20206;-78
2023/11/03 07:47:30;;;;;;;10.40;1.67;;;7.50;99.90;;;;;;4110290;28;20217;-78
2023/11/03 07:49:33;;;;;;;9.00;1.90;;;7.60;99.90;;;;;;4111159;28;20618;-78
2023/11/03 07:51:38;;;;;;;8.13;1.43;;;7.70;99.90;;;;;;4117008;28;20760;-78
2023/11/03 07:53:40;;;;;;;6.07;1.73;;;7.60;99.90;;;;;;4112254;28;20236;-78
2023/11/03 07:55:42;;;;;;;8.70;1.90;;;7.60;99.90;;;;;;4108279;28;20674;-78
2023/11/03 07:57:44;;;;;;;5.20;1.57;;;7.60;99.90;;;;;;4108266;28;20209;-78
2023/11/03 07:59:45;;;;;;;6.07;1.50;;;7.60;99.90;;;;;;4107083;28;20304;-78
2023/11/03 08:01:47;;;;;;;8.27;1.47;;;7.60;99.90;;;;;;4107035;28;20228;-78
2023/11/03 08:03:50;;;;;;;5.23;1.30;;;7.70;99.90;;;;;;4110043;28;20888;-78
2023/11/03 08:05:54;;;;;;;6.23;1.40;;;7.70;99.90;;;;;;4109499;28;20822;-78
2023/11/03 08:07:56;;;;;;;7.37;1.60;;;7.70;99.90;;;;;;4107190;28;20217;-77
2023/11/03 08:09:57;;;;;;;5.10;1.40;;;7.70;99.90;;;;;;4112401;28;20217;-78
2023/11/03 08:11:59;;;;;;;6.17;1.50;;;7.80;99.90;;;;;;4114442;28;20693;-78
2023/11/03 08:14:01;;;;;;;3.20;1.17;;;7.80;99.90;;;;;;4107498;28;20271;-78
2023/11/03 08:16:03;;;;;;;5.40;1.20;;;7.80;99.90;;;;;;4110152;28;20857;-78
2023/11/03 08:18:05;;;;;;;3.43;1.43;;;7.80;99.90;;;;;;4107397;28;20209;-78
2023/11/03 08:20:11;;;;;;;7.07;1.37;;;7.90;99.90;;;;;;4110338;28;20269;-78
2023/11/03 08:22:16;;;;;;;4.90;1.00;;;7.90;99.90;;;;;;4110370;28;20774;-78
2023/11/03 08:24:18;;;;;;;10.07;1.80;;;7.90;99.90;;;;;;4106936;28;20226;-78
2023/11/03 08:26:20;;;;;;;5.13;1.20;;;7.90;99.90;;;;;;4111533;28;20726;-78
2023/11/03 08:28:22;;;;;;;7.73;1.17;;;7.90;99.90;;;;;;4113271;28;20214;-78
2023/11/03 08:30:24;;;;;;;6.87;1.20;;;8.00;99.90;;;;;;4108917;28;20209;-78
2023/11/03 08:32:25;;;;;;;6.33;1.20;;;8.10;99.90;;;;;;4110702;28;20640;-78
2023/11/03 08:34:27;;;;;;;2.97;1.23;;;8.10;99.90;;;;;;4109712;28;20257;-78
2023/11/03 08:36:28;;;;;;;5.60;1.20;;;8.10;99.90;;;;;;4112263;28;20205;-78
2023/11/03 08:38:33;;;;;;;6.13;1.30;;;8.20;99.90;;;;;;4114976;28;20674;-78
2023/11/03 08:40:34;;;;;;;5.90;1.00;;;8.20;99.90;;;;;;4112370;28;20678;-78
2023/11/03 08:42:36;;;;;;;6.27;1.10;;;8.20;99.90;;;;;;4109002;28;20223;-78
2023/11/03 08:44:40;;;;;;;5.97;1.60;;;8.20;99.90;;;;;;4107133;28;20288;-78
2023/11/03 08:46:42;;;;;;;6.00;1.00;;;8.20;99.90;;;;;;4114363;28;20560;-78
2023/11/03 08:48:47;;;;;;;1.43;0.70;;;8.30;99.90;;;;;;4109603;28;20215;-78
2023/11/03 08:50:49;;;;;;;6.70;1.30;;;8.30;99.90;;;;;;4110238;28;20215;-78
2023/11/03 08:52:52;;;;;;;5.20;1.10;;;8.40;99.90;;;;;;4109963;28;20938;-78
2023/11/03 08:54:56;;;;;;;5.93;1.30;;;8.40;99.90;;;;;;4109890;28;20789;-78
2023/11/03 08:56:58;;;;;;;5.13;1.13;;;8.40;99.90;;;;;;4109779;28;20237;-78
2023/11/03 08:59:00;;;;;;;3.03;1.20;;;8.50;99.90;;;;;;4111976;28;20208;-78
2023/11/03 09:01:03;;;;;;;4.40;1.03;;;8.50;99.90;;;;;;4109827;28;20257;-78
2023/11/03 09:03:05;;;;;;;3.73;1.30;;;8.60;99.90;;;;;;4108398;28;20212;-78
2023/11/03 09:05:09;;;;;;;4.93;1.57;;;8.60;99.90;;;;;;4107873;28;20222;-79
2023/11/03 09:07:12;;;;;;;4.07;1.10;;;8.70;99.90;;;;;;4108303;28;20714;-79
2023/11/03 09:09:14;;;;;;;4.53;1.00;;;8.80;99.90;;;;;;4107896;28;21080;-78
2023/11/03 09:11:16;;;;;;;5.40;1.20;;;8.80;99.90;;;;;;4105800;28;20225;-78
2023/11/03 09:13:18;;;;;;;4.93;0.90;;;8.80;99.90;;;;;;4113733;28;20261;-78
2023/11/03 09:15:24;;;;;;;4.60;1.40;;;8.80;99.90;;;;;;4113165;28;20825;-78
2023/11/03 09:17:27;;;;;;;6.00;1.20;;;8.90;99.90;;;;;;4113087;28;20249;-78
2023/11/03 09:19:29;;;;;;;3.83;0.90;;;8.90;99.90;;;;;;4113051;28;20770;-78
2023/11/03 09:21:30;;;;;;;4.57;1.10;;;9.00;99.90;;;;;;4115807;28;20266;-78
2023/11/03 09:23:33;;;;;;;2.90;1.13;;;9.00;99.90;;;;;;4111283;28;20727;-77
2023/11/03 09:25:35;;;;;;;3.40;0.93;;;9.00;99.90;;;;;;4114947;28;20215;-76
2023/11/03 09:27:38;;;;;;;5.57;1.00;;;9.10;99.90;;;;;;4111887;28;20589;-78
2023/11/03 09:29:41;;;;;;;8.10;1.87;;;9.10;99.90;;;;;;4110434;28;20730;-78
2023/11/03 09:31:48;;;;;;;9.50;1.67;;;9.20;99.90;;;;;;4107909;28;20209;-78
2023/11/03 09:33:50;;;;;;;8.67;1.40;;;9.20;99.90;;;;;;4108900;28;20228;-78
2023/11/03 09:35:52;;;;;;;6.47;1.03;;;9.30;99.90;;;;;;4108216;28;20626;-78
2023/11/03 09:37:55;;;;;;;3.40;1.00;;;9.30;99.90;;;;;;4109508;28;20272;-78
2023/11/03 09:39:57;;;;;;;5.50;1.10;;;9.30;99.90;;;;;;4108452;28;20210;-78
2023/11/03 09:42:05;;;;;;;3.27;1.00;;;9.40;99.90;;;;;;4108119;28;20271;-78
2023/11/03 09:44:10;;;;;;;6.83;1.10;;;9.40;99.90;;;;;;4109519;28;20311;-78
2023/11/03 09:46:12;;;;;;;4.97;0.90;;;9.50;99.90;;;;;;4105741;28;20219;-78
2023/11/03 09:48:18;;;;;;;6.70;1.40;;;9.80;99.90;;;;;;4105312;28;20209;-77
2023/11/03 09:50:21;;;;;;;1.90;0.87;;;9.60;99.90;;;;;;4109666;28;20265;-77
2023/11/03 09:52:25;;;;;;;3.83;1.20;;;9.60;99.90;;;;;;4107500;28;20672;-77
2023/11/03 09:54:28;;;;;;;3.47;0.90;;;9.60;99.90;;;;;;4106449;28;20347;-77
2023/11/03 09:56:30;;;;;;;3.17;0.80;;;9.70;99.90;;;;;;4104831;28;20266;-77
2023/11/03 09:58:32;;;;;;;6.60;1.43;;;9.70;99.90;;;;;;4105691;28;20747;-78
2023/11/03 10:00:37;;;;;;;4.73;1.20;;;9.70;99.90;;;;;;4108944;28;20212;-78
2023/11/03 10:02:38;;;;;;;2.03;0.93;;;9.70;99.90;;;;;;4111577;28;20215;-77
2023/11/03 10:04:40;;;;;;;3.50;1.10;;;9.80;99.90;;;;;;4110654;28;20312;-77
2023/11/03 10:06:41;;;;;;;4.13;0.90;;;9.80;99.90;;;;;;4108861;28;20213;-78
2023/11/03 10:08:44;;;;;;;3.53;1.00;;;9.90;99.90;;;;;;4104924;28;20231;-77
2023/11/03 10:10:46;;;;;;;5.33;1.07;;;9.90;99.90;;;;;;4109958;28;20205;-77
2023/11/03 10:12:48;;;;;;;2.77;0.80;;;10.00;99.90;;;;;;4111348;28;20241;-77
2023/11/03 10:14:53;;;;;;;3.13;1.10;;;10.10;99.90;;;;;;4107288;28;20245;-78
2023/11/03 10:16:58;;;;;;;3.67;0.80;;;10.20;99.90;;;;;;4108236;28;20205;-78
2023/11/03 10:19:00;;;;;;;4.37;1.10;;;10.20;99.90;;;;;;4115637;28;20822;-78
2023/11/03 10:21:05;;;;;;;5.20;1.10;;;10.30;99.90;;;;;;4107830;28;20625;-77
2023/11/03 10:23:07;;;;;;;6.37;1.60;;;10.30;99.90;;;;;;4107362;28;20288;-77
2023/11/03 10:25:10;;;;;;;4.33;1.10;;;10.30;99.90;;;;;;4106644;28;20213;-78
2023/11/03 10:27:12;;;;;;;3.60;1.27;;;10.20;99.90;;;;;;4119261;28;20223;-78
2023/11/03 10:29:15;;;;;;;5.80;1.10;;;10.20;99.90;;;;;;4114237;28;20222;-77
2023/11/03 10:31:18;;;;;;;3.63;0.93;;;10.20;99.90;;;;;;4114301;28;20743;-78
2023/11/03 10:33:23;;;;;;;8.00;1.20;;;10.30;99.90;;;;;;4110348;28;20216;-78
2023/11/03 10:35:27;;;;;;;3.77;0.93;;;10.30;99.90;;;;;;4113252;28;20205;-77
2023/11/03 10:37:31;;;;;;;3.03;1.23;;;10.40;99.90;;;;;;4109256;28;20213;-77
2023/11/03 10:39:33;;;;;;;4.57;1.00;;;10.40;99.90;;;;;;4113276;28;20208;-78
2023/11/03 10:41:35;;;;;;;6.87;1.00;;;10.50;99.90;;;;;;4111632;28;20611;-77
2023/11/03 10:43:42;;;;;;;3.80;0.87;;;10.60;99.90;;;;;;4109747;28;20591;-77
2023/11/03 10:45:51;;;;;;;5.50;1.10;;;10.70;99.90;;;;;;4108499;28;20951;-78
2023/11/03 10:48:01;;;;;;;2.47;1.00;;;10.80;99.90;;;;;;4112052;28;20852;-77
2023/11/03 10:50:09;;;;;;;3.00;0.90;;;10.90;99.90;;;;;;4110596;28;20211;-77
2023/11/03 10:52:18;;;;;;;4.07;0.90;;;11.00;99.90;;;;;;4106518;28;20212;-76
2023/11/03 10:54:29;;;;;;;2.53;0.97;;;11.10;99.90;;;;;;4107783;28;20279;-77
2023/11/03 10:56:32;;;;;;;3.90;0.90;;;11.20;99.90;;;;;;4116101;28;20228;-76
2023/11/03 10:58:34;;;;;;;5.67;1.17;;;11.20;99.90;;;;;;4108392;28;20214;-81
2023/11/03 11:00:44;;;;;;;3.07;0.90;;;11.30;99.90;;;;;;4112986;28;20232;-75
2023/11/03 11:02:55;;;;;;;4.23;1.20;;;11.20;99.90;;;;;;4101047;28;20240;-78
2023/11/03 11:05:06;;;;;;;3.90;1.10;;;11.20;99.90;;;;;;4108236;28;20240;-77
2023/11/03 11:07:17;;;;;;;5.33;1.47;;;11.30;99.90;;;;;;4109489;28;20262;-77
2023/11/03 11:09:24;;;;;;;3.47;1.07;;;11.30;99.90;;;;;;4108504;28;20215;-77
2023/11/03 11:11:27;;;;;;;5.43;2.13;;;11.40;99.90;;;;;;4109354;28;20824;-77
2023/11/03 11:13:30;;;;;;;5.60;1.73;;;11.40;99.90;;;;;;4111878;28;20249;-77
2023/11/03 11:15:32;;;;;;;4.53;1.80;;;11.40;99.90;;;;;;4114070;28;20712;-77